createdAt,value
2023-01-23T00:01:54.869Z,-1.83
2023-01-23T00:04:27.784Z,-1.85
2023-01-23T00:07:01.239Z,-1.89
2023-01-23T00:09:34.322Z,-1.91
2023-01-23T00:12:08.043Z,-1.91
2023-01-23T00:14:41.448Z,-1.92
2023-01-23T00:17:14.598Z,-1.91
2023-01-23T00:19:47.986Z,-1.94
2023-01-23T00:22:20.842Z,-1.96
2023-01-23T00:24:53.613Z,-1.96
2023-01-23T00:27:27.844Z,-2.00
2023-01-23T00:30:00.807Z,-2.00
2023-01-23T00:32:34.549Z,-2.02
2023-01-23T00:35:08.852Z,-2.02
2023-01-23T00:37:42.865Z,-2.04
2023-01-23T00:40:16.606Z,-2.02
2023-01-23T00:42:49.581Z,-2.01
2023-01-23T00:45:22.304Z,-2.03
2023-01-23T00:47:55.505Z,-2.01
2023-01-23T00:50:28.473Z,-2.01
2023-01-23T00:53:01.205Z,-1.98
2023-01-23T00:55:34.450Z,-1.99
2023-01-23T00:58:07.520Z,-1.99
2023-01-23T01:00:42.179Z,-1.96
2023-01-23T01:03:15.482Z,-1.95
2023-01-23T01:05:48.995Z,-1.95
2023-01-23T01:08:22.271Z,-1.91
2023-01-23T01:10:55.428Z,-1.88
2023-01-23T01:13:30.136Z,-1.84
2023-01-23T01:16:03.251Z,-1.77
2023-01-23T01:18:36.205Z,-1.73
2023-01-23T01:21:15.327Z,-1.68
2023-01-23T01:23:48.270Z,-1.61
2023-01-23T01:26:23.383Z,-1.55
2023-01-23T01:28:56.252Z,-1.47
2023-01-23T01:31:29.238Z,-1.39
2023-01-23T01:34:02.231Z,-1.33
2023-01-23T01:36:35.626Z,-1.29
2023-01-23T01:39:08.542Z,-1.24
2023-01-23T01:41:41.797Z,-1.22
2023-01-23T01:44:23.525Z,-1.18
2023-01-23T01:46:56.294Z,-1.12
2023-01-23T01:49:32.895Z,-1.08
2023-01-23T01:52:10.070Z,-1.06
2023-01-23T01:54:47.886Z,-1.06
2023-01-23T01:57:31.539Z,-1.05
2023-01-23T02:00:17.093Z,-1.05
2023-01-23T02:03:02.760Z,-1.02
2023-01-23T02:05:45.349Z,-1.03
2023-01-23T02:08:40.566Z,-1.05
2023-01-23T02:11:15.456Z,-1.07
2023-01-23T02:13:48.717Z,-1.06
2023-01-23T02:16:25.571Z,-1.06
2023-01-23T02:19:04.192Z,-1.07
2023-01-23T02:21:38.365Z,-1.07
2023-01-23T02:24:25.462Z,-1.04
2023-01-23T02:26:58.339Z,-1.03
2023-01-23T02:29:43.799Z,-1.02
2023-01-23T02:32:16.959Z,-1.02
2023-01-23T02:34:50.178Z,-1.03
2023-01-23T02:37:26.298Z,-1.06
2023-01-23T02:39:59.241Z,-1.08
2023-01-23T02:42:33.403Z,-1.07
2023-01-23T02:45:07.288Z,-1.08
2023-01-23T02:47:40.158Z,-1.08
2023-01-23T02:50:13.957Z,-1.12
2023-01-23T02:52:49.474Z,-1.12
2023-01-23T02:55:23.049Z,-1.09
2023-01-23T02:57:57.464Z,-1.08
2023-01-23T03:00:30.482Z,-1.07
2023-01-23T03:03:05.818Z,-1.08
2023-01-23T03:05:39.444Z,-1.06
2023-01-23T03:08:12.407Z,-1.03
2023-01-23T03:10:45.600Z,-1.03
2023-01-23T03:13:19.508Z,-1.03
2023-01-23T03:15:54.611Z,-1.01
2023-01-23T03:18:30.092Z,-1.00
2023-01-23T03:21:08.286Z,-0.99
2023-01-23T03:23:46.079Z,-0.97
2023-01-23T03:26:19.455Z,-0.97
2023-01-23T03:29:10.707Z,-0.97
2023-01-23T03:31:44.067Z,-0.99
2023-01-23T03:34:18.428Z,-0.99
2023-01-23T03:36:51.322Z,-1.02
2023-01-23T03:39:42.045Z,-1.03
2023-01-23T03:42:15.004Z,-1.03
2023-01-23T03:44:47.878Z,-1.02
2023-01-23T03:47:21.119Z,-1.01
2023-01-23T03:49:54.348Z,-1.01
2023-01-23T03:52:27.534Z,-1.02
2023-01-23T03:55:02.335Z,-1.01
2023-01-23T03:57:35.517Z,-1.03
2023-01-23T04:00:20.646Z,-1.01
2023-01-23T04:02:55.847Z,-1.01
2023-01-23T04:05:29.054Z,-1.00
2023-01-23T04:08:02.938Z,-1.02
2023-01-23T04:10:36.596Z,-1.02
2023-01-23T04:13:11.572Z,-1.02
2023-01-23T04:15:45.222Z,-1.03
2023-01-23T04:18:19.617Z,-1.03
2023-01-23T04:20:52.818Z,-1.04
2023-01-23T04:23:26.624Z,-1.06
2023-01-23T04:25:59.749Z,-1.09
2023-01-23T04:28:33.300Z,-1.14
2023-01-23T04:31:06.701Z,-1.15
2023-01-23T04:33:40.482Z,-1.17
2023-01-23T04:36:14.354Z,-1.18
2023-01-23T04:38:47.210Z,-1.19
2023-01-23T04:41:25.929Z,-1.26
2023-01-23T04:44:18.522Z,-1.32
2023-01-23T04:46:55.237Z,-1.37
2023-01-23T04:49:29.460Z,-1.41
2023-01-23T04:52:03.222Z,-1.43
2023-01-23T04:54:36.479Z,-1.46
2023-01-23T04:57:09.833Z,-1.50
2023-01-23T04:59:42.758Z,-1.52
2023-01-23T05:02:16.039Z,-1.58
2023-01-23T05:04:51.101Z,-1.58
2023-01-23T05:07:24.584Z,-1.56
2023-01-23T05:09:59.268Z,-1.55
2023-01-23T05:12:32.538Z,-1.54
2023-01-23T05:15:07.121Z,-1.52
2023-01-23T05:17:42.805Z,-1.55
2023-01-23T05:20:16.020Z,-1.58
2023-01-23T05:22:57.621Z,-1.60
2023-01-23T05:25:32.062Z,-1.62
2023-01-23T05:28:05.323Z,-1.60
2023-01-23T05:30:39.792Z,-1.61
2023-01-23T05:33:14.528Z,-1.63
2023-01-23T05:35:48.323Z,-1.63
2023-01-23T05:38:21.080Z,-1.64
2023-01-23T05:40:54.176Z,-1.64
2023-01-23T05:43:45.978Z,-1.63
2023-01-23T05:46:24.414Z,-1.59
2023-01-23T05:48:57.303Z,-1.61
2023-01-23T05:51:34.291Z,-1.62
2023-01-23T05:54:07.131Z,-1.62
2023-01-23T05:56:40.512Z,-1.62
2023-01-23T05:59:31.901Z,-1.61
2023-01-23T06:02:06.860Z,-1.58
2023-01-23T06:04:55.787Z,-1.56
2023-01-23T06:07:30.106Z,-1.54
2023-01-23T06:10:03.741Z,-1.52
2023-01-23T06:12:37.359Z,-1.49
2023-01-23T06:15:10.758Z,-1.51
2023-01-23T06:17:44.076Z,-1.48
2023-01-23T06:20:17.362Z,-1.46
2023-01-23T06:22:51.148Z,-1.42
2023-01-23T06:25:24.856Z,-1.39
2023-01-23T06:27:58.214Z,-1.36
2023-01-23T06:30:33.092Z,-1.30
2023-01-23T06:33:06.428Z,-1.29
2023-01-23T06:35:40.794Z,-1.32
2023-01-23T06:38:13.675Z,-1.36
2023-01-23T06:40:47.435Z,-1.38
2023-01-23T06:43:22.600Z,-1.39
2023-01-23T06:45:55.611Z,-1.40
2023-01-23T06:48:29.629Z,-1.39
2023-01-23T06:51:06.025Z,-1.37
2023-01-23T06:53:38.128Z,-1.35
2023-01-23T06:56:11.233Z,-1.33
2023-01-23T06:58:47.001Z,-1.32
2023-01-23T07:01:29.152Z,-1.31
2023-01-23T07:04:19.789Z,-1.28
2023-01-23T07:06:54.514Z,-1.25
2023-01-23T07:09:27.568Z,-1.23
2023-01-23T07:12:02.570Z,-1.23
2023-01-23T07:14:36.791Z,-1.22
2023-01-23T07:17:09.965Z,-1.23
2023-01-23T07:19:42.971Z,-1.23
2023-01-23T07:22:22.693Z,-1.23
2023-01-23T07:24:55.489Z,-1.21
2023-01-23T07:27:28.365Z,-1.16
2023-01-23T07:30:01.582Z,-1.13
2023-01-23T07:32:35.003Z,-1.08
2023-01-23T07:35:09.292Z,-1.04
2023-01-23T07:37:42.635Z,-1.01
2023-01-23T07:40:15.817Z,-0.97
2023-01-23T07:42:49.280Z,-0.95
2023-01-23T07:45:22.026Z,-0.92
2023-01-23T07:47:54.840Z,-0.93
2023-01-23T07:50:28.001Z,-0.94
2023-01-23T07:53:00.877Z,-0.89
2023-01-23T07:55:34.144Z,-0.85
2023-01-23T07:58:07.324Z,-0.83
2023-01-23T08:00:42.180Z,-0.83
2023-01-23T08:03:14.984Z,-0.86
2023-01-23T08:05:52.158Z,-0.89
2023-01-23T08:08:25.287Z,-0.91
2023-01-23T08:10:58.211Z,-0.92
2023-01-23T08:13:31.404Z,-0.86
2023-01-23T08:16:04.554Z,-0.82
2023-01-23T08:18:37.950Z,-0.78
2023-01-23T08:21:11.483Z,-0.72
2023-01-23T08:23:45.305Z,-0.66
2023-01-23T08:26:19.564Z,-0.65
2023-01-23T08:28:52.439Z,-0.62
2023-01-23T08:31:25.964Z,-0.61
2023-01-23T08:33:58.913Z,-0.61
2023-01-23T08:36:31.739Z,-0.57
2023-01-23T08:39:05.611Z,-0.51
2023-01-23T08:41:38.709Z,-0.49
2023-01-23T08:44:11.633Z,-0.47
2023-01-23T08:46:45.093Z,-0.44
2023-01-23T08:49:19.807Z,-0.42
2023-01-23T08:51:52.593Z,-0.40
2023-01-23T08:54:26.289Z,-0.38
2023-01-23T08:56:59.091Z,-0.35
2023-01-23T08:59:31.860Z,-0.34
2023-01-23T09:02:05.429Z,-0.37
2023-01-23T09:04:40.057Z,-0.37
2023-01-23T09:07:12.827Z,-0.37
2023-01-23T09:09:46.083Z,-0.36
2023-01-23T09:12:18.886Z,-0.38
2023-01-23T09:14:52.088Z,-0.38
2023-01-23T09:17:24.859Z,-0.38
2023-01-23T09:19:59.375Z,-0.37
2023-01-23T09:22:32.089Z,-0.38
2023-01-23T09:25:05.808Z,-0.35
2023-01-23T09:27:39.140Z,-0.32
2023-01-23T09:30:13.575Z,-0.29
2023-01-23T09:32:47.211Z,-0.27
2023-01-23T09:35:20.226Z,-0.24
2023-01-23T09:38:02.564Z,-0.21
2023-01-23T09:40:52.761Z,-0.21
2023-01-23T09:43:46.594Z,-0.21
2023-01-23T09:46:29.302Z,-0.21
2023-01-23T09:49:15.639Z,-0.23
2023-01-23T09:51:59.129Z,-0.25
2023-01-23T09:54:45.211Z,-0.28
2023-01-23T09:57:22.133Z,-0.23
2023-01-23T10:00:08.741Z,-0.23
2023-01-23T10:02:47.128Z,-0.20
2023-01-23T10:05:24.455Z,-0.14
2023-01-23T10:08:24.527Z,-0.10
2023-01-23T10:11:18.710Z,-0.03
2023-01-23T10:14:08.389Z,-0.02
2023-01-23T10:17:08.340Z,-0.02
2023-01-23T10:20:00.289Z,-0.04
2023-01-23T10:22:49.457Z,-0.02
2023-01-23T10:25:28.177Z,-0.02
2023-01-23T10:28:14.746Z,0.00
2023-01-23T10:30:51.059Z,0.02
2023-01-23T10:33:28.673Z,0.04
2023-01-23T10:36:21.544Z,0.09
2023-01-23T10:39:05.722Z,0.09
2023-01-23T10:41:39.525Z,0.10
2023-01-23T10:44:19.053Z,0.11
2023-01-23T10:46:55.928Z,0.12
2023-01-23T10:49:41.432Z,0.15
2023-01-23T10:52:36.875Z,0.17
2023-01-23T10:55:23.620Z,0.18
2023-01-23T10:58:01.666Z,0.17
2023-01-23T11:00:41.847Z,0.14
2023-01-23T11:03:31.207Z,0.14
2023-01-23T11:06:11.538Z,0.18
2023-01-23T11:09:01.779Z,0.20
2023-01-23T11:11:36.539Z,0.17
2023-01-23T11:14:19.315Z,0.16
2023-01-23T11:17:09.793Z,0.16
2023-01-23T11:19:42.970Z,0.15
2023-01-23T11:22:38.446Z,0.14
2023-01-23T11:25:33.958Z,0.17
2023-01-23T11:28:30.709Z,0.22
2023-01-23T11:31:26.213Z,0.26
2023-01-23T11:34:12.749Z,0.26
2023-01-23T11:37:14.466Z,0.29
2023-01-23T11:39:57.943Z,0.31
2023-01-23T11:42:32.209Z,0.28
2023-01-23T11:45:07.097Z,0.24
2023-01-23T11:48:11.614Z,0.20
2023-01-23T11:50:57.123Z,0.17
2023-01-23T11:53:43.279Z,0.14
2023-01-23T11:56:39.491Z,0.13
2023-01-23T11:59:16.935Z,0.16
2023-01-23T12:02:08.986Z,0.21
2023-01-23T12:05:05.403Z,0.24
2023-01-23T12:08:09.518Z,0.25
2023-01-23T12:10:58.665Z,0.27
2023-01-23T12:13:51.380Z,0.32
2023-01-23T12:17:05.603Z,0.42
2023-01-23T12:19:46.163Z,0.53
2023-01-23T12:22:32.443Z,0.59
2023-01-23T12:25:34.369Z,0.62
2023-01-23T12:28:41.987Z,0.63
2023-01-23T12:31:57.490Z,0.62
2023-01-23T12:34:53.846Z,0.58
2023-01-23T12:37:39.881Z,0.56
2023-01-23T12:40:18.140Z,0.55
2023-01-23T12:43:05.153Z,0.57
2023-01-23T12:45:41.215Z,0.56
2023-01-23T12:48:28.709Z,0.58
2023-01-23T12:51:24.879Z,0.54
2023-01-23T12:53:58.449Z,0.52
2023-01-23T12:56:36.091Z,0.52
2023-01-23T12:59:22.142Z,0.50
2023-01-23T13:02:20.646Z,0.51
2023-01-23T13:05:30.419Z,0.46
2023-01-23T13:08:13.388Z,0.44
2023-01-23T13:11:25.989Z,0.41
2023-01-23T13:14:00.780Z,0.41
2023-01-23T13:16:34.501Z,0.44
2023-01-23T13:19:29.788Z,0.45
2023-01-23T13:22:32.579Z,0.45
2023-01-23T13:25:14.660Z,0.44
2023-01-23T13:27:53.141Z,0.42
2023-01-23T13:30:32.308Z,0.43
2023-01-23T13:33:18.880Z,0.43
2023-01-23T13:35:55.582Z,0.42
2023-01-23T13:38:40.655Z,0.42
2023-01-23T13:41:19.414Z,0.42
2023-01-23T13:43:58.321Z,0.42
2023-01-23T13:46:47.973Z,0.40
2023-01-23T13:49:52.623Z,0.38
2023-01-23T13:52:47.233Z,0.38
2023-01-23T13:55:51.693Z,0.35
2023-01-23T13:58:26.888Z,0.31
2023-01-23T14:01:30.824Z,0.27
2023-01-23T14:04:34.113Z,0.26
2023-01-23T14:07:09.482Z,0.20
2023-01-23T14:09:44.054Z,0.16
2023-01-23T14:12:16.859Z,0.11
2023-01-23T14:15:00.240Z,0.07
2023-01-23T14:17:34.553Z,0.03
2023-01-23T14:20:19.249Z,-0.01
2023-01-23T14:22:56.164Z,-0.06
2023-01-23T14:25:29.711Z,-0.10
2023-01-23T14:28:07.409Z,-0.14
2023-01-23T14:30:40.664Z,-0.17
2023-01-23T14:33:17.768Z,-0.21
2023-01-23T14:35:51.268Z,-0.24
2023-01-23T14:38:34.207Z,-0.24
2023-01-23T14:41:08.814Z,-0.29
2023-01-23T14:43:43.715Z,-0.31
2023-01-23T14:46:22.104Z,-0.33
2023-01-23T14:48:56.371Z,-0.38
2023-01-23T14:51:30.482Z,-0.40
2023-01-23T14:54:10.397Z,-0.45
2023-01-23T14:56:42.514Z,-0.48
2023-01-23T14:59:28.680Z,-0.53
2023-01-23T15:02:19.747Z,-0.56
2023-01-23T15:04:41.081Z,-0.60
2023-01-23T15:07:16.887Z,-0.64
2023-01-23T15:09:49.823Z,-0.65
2023-01-23T15:12:23.039Z,-0.65
2023-01-23T15:14:58.754Z,-0.66
2023-01-23T15:17:30.631Z,-0.69
2023-01-23T15:20:03.397Z,-0.70
2023-01-23T15:22:37.960Z,-0.72
2023-01-23T15:25:34.917Z,-0.77
2023-01-23T15:28:31.256Z,-0.77
2023-01-23T15:31:04.675Z,-0.77
2023-01-23T15:33:39.258Z,-0.77
2023-01-23T15:36:19.315Z,-0.77
2023-01-23T15:38:52.157Z,-0.78
2023-01-23T15:41:43.596Z,-0.77
2023-01-23T15:44:20.562Z,-0.77
2023-01-23T15:46:54.131Z,-0.77
2023-01-23T15:49:27.389Z,-0.77
2023-01-23T15:52:18.831Z,-0.75
2023-01-23T15:54:59.265Z,-0.73
2023-01-23T15:57:32.446Z,-0.72
2023-01-23T16:00:21.408Z,-0.70
2023-01-23T16:02:58.491Z,-0.70
2023-01-23T16:05:37.273Z,-0.69
2023-01-23T16:08:23.241Z,-0.70
2023-01-23T16:10:57.933Z,-0.69
2023-01-23T16:13:30.881Z,-0.70
2023-01-23T16:16:04.231Z,-0.70
2023-01-23T16:18:36.759Z,-0.70
2023-01-23T16:21:15.547Z,-0.71
2023-01-23T16:23:50.057Z,-0.72
2023-01-23T16:26:25.852Z,-0.72
2023-01-23T16:29:12.763Z,-0.72
2023-01-23T16:31:34.022Z,-0.72
2023-01-23T16:34:07.727Z,-0.75
2023-01-23T16:36:40.548Z,-0.74
2023-01-23T16:39:18.853Z,-0.74
2023-01-23T16:41:53.724Z,-0.73
2023-01-23T16:44:41.543Z,-0.75
2023-01-23T16:47:15.234Z,-0.74
2023-01-23T16:49:54.508Z,-0.75
2023-01-23T16:52:27.520Z,-0.74
2023-01-23T16:55:00.396Z,-0.75
2023-01-23T16:57:34.100Z,-0.74
2023-01-23T17:00:08.570Z,-0.74
2023-01-23T17:02:42.137Z,-0.74
2023-01-23T17:05:15.034Z,-0.74
2023-01-23T17:07:51.475Z,-0.72
2023-01-23T17:10:37.858Z,-0.71
2023-01-23T17:13:01.720Z,-0.68
2023-01-23T17:15:34.889Z,-0.67
2023-01-23T17:18:07.873Z,-0.63
2023-01-23T17:20:40.992Z,-0.60
2023-01-23T17:23:15.684Z,-0.53
2023-01-23T17:25:59.916Z,-0.48
2023-01-23T17:28:25.151Z,-0.41
2023-01-23T17:31:00.691Z,-0.37
2023-01-23T17:33:34.377Z,-0.32
2023-01-23T17:36:07.958Z,-0.29
2023-01-23T17:38:42.420Z,-0.22
2023-01-23T17:41:18.103Z,-0.20
2023-01-23T17:43:52.944Z,-0.17
2023-01-23T17:46:32.744Z,-0.15
2023-01-23T17:49:26.089Z,-0.13
2023-01-23T17:52:02.248Z,-0.12
2023-01-23T17:54:35.134Z,-0.09
2023-01-23T17:57:08.843Z,-0.08
2023-01-23T17:59:41.818Z,-0.05
2023-01-23T18:02:27.767Z,-0.05
2023-01-23T18:05:01.509Z,-0.04
2023-01-23T18:07:48.517Z,-0.03
2023-01-23T18:10:13.263Z,-0.02
2023-01-23T18:13:08.911Z,-0.03
2023-01-23T18:16:14.159Z,-0.01
2023-01-23T18:18:54.802Z,0.00
2023-01-23T18:21:28.061Z,0.03
2023-01-23T18:24:01.371Z,0.04
2023-01-23T18:26:49.203Z,0.05
2023-01-23T18:29:44.611Z,0.05
2023-01-23T18:33:07.924Z,0.07
2023-01-23T18:36:12.648Z,0.07
2023-01-23T18:39:06.253Z,0.07
2023-01-23T18:41:43.934Z,0.07
2023-01-23T18:44:25.339Z,0.07
2023-01-23T18:46:58.295Z,0.06
2023-01-23T18:49:33.148Z,0.06
2023-01-23T18:52:18.362Z,0.06
2023-01-23T18:55:13.352Z,0.06
2023-01-23T18:58:15.332Z,0.07
2023-01-23T19:01:20.012Z,0.07
2023-01-23T19:03:53.237Z,0.04
2023-01-23T19:06:27.807Z,0.03
2023-01-23T19:09:00.829Z,0.04
2023-01-23T19:12:14.069Z,0.03
2023-01-23T19:14:52.409Z,0.03
2023-01-23T19:17:50.145Z,0.05
2023-01-23T19:20:39.543Z,0.07
2023-01-23T19:23:29.267Z,0.09
2023-01-23T19:26:02.446Z,0.11
2023-01-23T19:28:38.568Z,0.12
2023-01-23T19:31:30.364Z,0.12
2023-01-23T19:34:04.552Z,0.11
2023-01-23T19:36:39.134Z,0.10
2023-01-23T19:39:12.429Z,0.09
2023-01-23T19:41:48.881Z,0.10
2023-01-23T19:44:24.500Z,0.08
2023-01-23T19:46:57.879Z,0.07
2023-01-23T19:49:31.005Z,0.07
2023-01-23T19:52:04.139Z,0.07
2023-01-23T19:54:38.513Z,0.09
2023-01-23T19:57:13.875Z,0.10
2023-01-23T19:59:46.631Z,0.11
2023-01-23T20:02:25.199Z,0.11
2023-01-23T20:04:58.878Z,0.11
2023-01-23T20:07:31.671Z,0.12
2023-01-23T20:10:05.203Z,0.12
2023-01-23T20:12:47.457Z,0.12
2023-01-23T20:15:23.681Z,0.11
2023-01-23T20:17:57.380Z,0.09
2023-01-23T20:20:31.069Z,0.07
2023-01-23T20:23:03.760Z,0.05
2023-01-23T20:25:38.118Z,0.03
2023-01-23T20:28:11.495Z,0.02
2023-01-23T20:30:44.675Z,0.02
2023-01-23T20:33:17.612Z,0.01
2023-01-23T20:35:53.667Z,-0.01
2023-01-23T20:38:26.759Z,0.01
2023-01-23T20:41:15.376Z,0.01
2023-01-23T20:43:48.684Z,0.02
2023-01-23T20:46:21.513Z,0.00
2023-01-23T20:48:54.830Z,0.00
2023-01-23T20:51:27.760Z,0.01
2023-01-23T20:54:00.635Z,-0.01
2023-01-23T20:56:33.756Z,-0.03
2023-01-23T20:59:23.524Z,-0.03
2023-01-23T21:02:13.954Z,-0.05
2023-01-23T21:04:47.306Z,-0.06
2023-01-23T21:07:22.747Z,-0.07
2023-01-23T21:09:55.670Z,-0.09
2023-01-23T21:12:28.698Z,-0.09
2023-01-23T21:15:01.884Z,-0.09
2023-01-23T21:17:34.984Z,-0.09
2023-01-23T21:20:08.909Z,-0.11
2023-01-23T21:22:42.171Z,-0.13
2023-01-23T21:25:15.265Z,-0.13
2023-01-23T21:27:48.616Z,-0.14
2023-01-23T21:30:21.820Z,-0.13
2023-01-23T21:32:56.304Z,-0.14
2023-01-23T21:35:29.467Z,-0.13
2023-01-23T21:38:02.335Z,-0.13
2023-01-23T21:40:35.570Z,-0.17
2023-01-23T21:43:08.743Z,-0.19
2023-01-23T21:45:43.148Z,-0.21
2023-01-23T21:48:15.037Z,-0.23
2023-01-23T21:50:47.603Z,-0.24
2023-01-23T21:53:20.338Z,-0.26
2023-01-23T21:55:56.141Z,-0.25
2023-01-23T21:58:28.948Z,-0.26
2023-01-23T22:01:26.296Z,-0.22
2023-01-23T22:04:00.856Z,-0.21
2023-01-23T22:06:34.856Z,-0.19
2023-01-23T22:09:10.325Z,-0.20
2023-01-23T22:11:43.897Z,-0.20
2023-01-23T22:14:17.940Z,-0.21
2023-01-23T22:16:51.426Z,-0.22
2023-01-23T22:19:25.884Z,-0.25
2023-01-23T22:21:58.937Z,-0.24
2023-01-23T22:24:31.693Z,-0.28
2023-01-23T22:27:05.851Z,-0.30
2023-01-23T22:29:38.732Z,-0.33
2023-01-23T22:32:12.109Z,-0.39
2023-01-23T22:34:44.886Z,-0.49
2023-01-23T22:37:17.857Z,-0.61
2023-01-23T22:39:51.128Z,-0.71
2023-01-23T22:42:23.855Z,-0.80
2023-01-23T22:44:56.607Z,-0.89
2023-01-23T22:47:29.442Z,-0.97
2023-01-23T22:50:02.195Z,-1.03
2023-01-23T22:52:35.551Z,-1.09
2023-01-23T22:55:08.855Z,-1.15
2023-01-23T22:57:41.913Z,-1.19
2023-01-23T23:00:17.647Z,-1.24
2023-01-23T23:02:50.720Z,-1.28
2023-01-23T23:05:23.790Z,-1.32
2023-01-23T23:07:56.726Z,-1.37
2023-01-23T23:10:29.972Z,-1.41
2023-01-23T23:13:02.812Z,-1.43
2023-01-23T23:15:37.318Z,-1.46
2023-01-23T23:18:09.271Z,-1.48
2023-01-23T23:20:41.799Z,-1.51
2023-01-23T23:23:14.987Z,-1.56
2023-01-23T23:25:47.941Z,-1.58
2023-01-23T23:28:20.887Z,-1.61
2023-01-23T23:30:54.039Z,-1.64
2023-01-23T23:33:27.335Z,-1.68
2023-01-23T23:36:00.761Z,-1.72
2023-01-23T23:38:34.046Z,-1.77
2023-01-23T23:41:10.189Z,-1.84
2023-01-23T23:43:45.828Z,-1.85
2023-01-23T23:46:18.849Z,-1.86
2023-01-23T23:48:51.606Z,-1.88
2023-01-23T23:51:26.848Z,-1.91
2023-01-23T23:53:59.596Z,-1.98
2023-01-23T23:56:33.985Z,-1.95
2023-01-23T23:59:06.830Z,-1.97
